Hauptseite
METAR-TAF:

METAR-TAF

Flughäfen :

Heeresflugplatz Fritzlar

Fritzlar, Deutschland

Breite: 51-07N, Länge: 009-17E, Höhe: 172 m

Beobachtung

Neuester Wetterbericht von vor 50 Minuten, um 15:20 UTC
Wind 4 kt aus Nord/Nordwest
Temperatur 28°C
Luftfeuchtigkeit 28%
Luftdruck 1011 hPa
Sichtweite 10 km oder mehr
Aufgelockert bewölkt in der Höhe von 7000 ft, Kumulonimbus.

METAR: ETHF 161520Z 34004KT 9999 SCT070CB 28/08 Q1011 BLU+

Zeit: 18:10 (16:10 UTC)

Prognose

Neuester Wetterbericht von vor 2 Stunden und 47 Minuten, um 13:23 UTC
Gültige Prognose vom 16 um 14 UTC bis 16 um 23 UTC
Wind 3 kt aus unterschiedlichen Richtungen
Sichtweite: 1400 m
Leicht bewölkt in der Höhe von 6000 ft

TAF: ETHF 161323Z 1614/1623 VRB03KT 9999 NSW FEW060 CANCEL 1400

Wetterbeobachtungen und Prognosen von mehr als 4000 Flughäfen (METAR und TAF Bericht).

Die verfügbaren Stationen werden durch gelbe und rote Markierungen auf der Karte dargestellt.

Führen Sie die Maus auf sie, um den Namen der Station zu sehen.

Darauf klicken, um die Beobachtung von Wetterbeobachtungen und Prognosen zu sehen.

Um die Karte zu ändern : klicken Sie auf den grünen Tasten mit einem schwarzen Kreuz Zum Vergrößern, auf den grünen Button mit einem Gedankenstrich zu verkleinern, oder auf die grünen Pfeile für benachbarte Karten.


METAR-TAF: